Time;durP1;ratioP1;P1;durP2;ratioP2;P2;SDS_P1;SDS_P2;PMS_P1;PMS_P2;Temp;Humidity;BMP_temperature;BMP_pressure;BME280_temperature;BME280_humidity;BME280_pressure;Samples;Min_cycle;Max_cycle;Signal;HPM_P1;HPM_P2
2022/08/11 00:00:37;;;;;;;;;;;;;;;16.44;100.00;99765.73;1712427;83;20484;-75
2022/08/11 00:03:13;;;;;;;;;;;;;;;16.42;100.00;99764.47;1699470;83;20629;-75
2022/08/11 00:05:52;;;;;;;;;;;;;;;16.40;100.00;99764.01;1723455;83;20121;-73
2022/08/11 00:08:26;;;;;;;;;;;;;;;16.40;100.00;99766.78;1724221;83;20436;-74
2022/08/11 00:10:59;;;;;;;;;;;;;;;16.37;100.00;99767.48;1724788;83;21158;-74
2022/08/11 00:13:40;;;;;;;;;;;;;;;16.34;100.00;99768.17;1723898;83;20125;-75
2022/08/11 00:16:26;;;;;;;;;;;;;;;16.33;100.00;99766.56;1724942;82;20121;-75
2022/08/11 00:19:00;;;;;;;;;;;;;;;16.33;100.00;99769.33;1699597;83;20598;-75
2022/08/11 00:21:25;;;;;;;;;;;;;;;16.30;100.00;99765.88;1723600;83;20472;-75
2022/08/11 00:24:00;;;;;;;;;;;;;;;16.27;100.00;99763.22;1723562;83;22051;-75
2022/08/11 00:26:32;;;;;;;;;;;;;;;16.26;100.00;99749.72;1724638;83;20141;-75
2022/08/11 00:29:00;;;;;;;;;;;;;;;16.25;100.00;99744.75;1723962;83;20438;-74
2022/08/11 00:31:32;;;;;;;;;;;;;;;16.24;100.00;99728.48;1721947;83;20085;-75
2022/08/11 00:34:00;;;;;;;;;;;;;;;16.25;100.00;99718.44;1724688;83;20420;-75
2022/08/11 00:36:51;;;;;;;;;;;;;;;16.28;100.00;99710.81;1724705;83;21142;-75
2022/08/11 00:39:18;;;;;;;;;;;;;;;16.33;100.00;99698.69;1724647;83;20073;-75
2022/08/11 00:42:16;;;;;;;;;;;;;;;16.34;100.00;99698.34;1724788;83;20093;-74
2022/08/11 00:44:55;;;;;;;;;;;;;;;16.37;100.00;99708.72;1724692;83;20541;-75
2022/08/11 00:47:38;;;;;;;;;;;;;;;16.40;100.00;99713.56;1724827;83;20428;-75
2022/08/11 00:50:25;;;;;;;;;;;;;;;16.43;100.00;99712.86;1718875;82;21133;-76
2022/08/11 00:53:05;;;;;;;;;;;;;;;16.43;100.00;99705.13;1724980;82;20104;-75
2022/08/11 00:56:00;;;;;;;;;;;;;;;16.41;100.00;99702.70;1700185;83;20132;-75
2022/08/11 00:58:48;;;;;;;;;;;;;;;16.40;100.00;99703.86;1724871;83;20097;-76
2022/08/11 01:01:19;;;;;;;;;;;;;;;16.42;100.00;99704.90;1724986;83;20104;-75
2022/08/11 01:04:06;;;;;;;;;;;;;;;16.39;100.00;99705.59;1724611;83;21873;-75
2022/08/11 01:06:50;;;;;;;;;;;;;;;16.37;100.00;99705.95;1724667;82;20160;-74
2022/08/11 01:09:40;;;;;;;;;;;;;;;16.36;100.00;99706.30;1700416;83;20085;-74
2022/08/11 01:12:45;;;;;;;;;;;;;;;16.32;100.00;99713.70;1724256;83;20160;-77
2022/08/11 01:15:40;;;;;;;;;;;;;;;16.28;100.00;99710.81;1699823;83;20140;-76
2022/08/11 01:18:22;;;;;;;;;;;;;;;16.22;100.00;99716.37;1725124;82;21746;-76
2022/08/11 01:21:12;;;;;;;;;;;;;;;16.19;100.00;99712.91;1724753;83;20081;-76
2022/08/11 01:23:55;;;;;;;;;;;;;;;16.14;100.00;99702.91;1724721;82;20208;-76
2022/08/11 01:27:03;;;;;;;;;;;;;;;16.11;100.00;99698.06;1724681;83;20181;-76
2022/08/11 01:29:59;;;;;;;;;;;;;;;16.10;100.00;99709.49;1700592;83;20134;-77
2022/08/11 01:33:09;;;;;;;;;;;;;;;16.10;100.00;99708.11;1700133;83;39549;-76
2022/08/11 01:35:55;;;;;;;;;;;;;;;16.09;100.00;99707.30;1692671;83;20124;-76
2022/08/11 01:38:57;;;;;;;;;;;;;;;16.12;100.00;99704.41;1705516;83;20081;-76
2022/08/11 01:44:57;;;;;;;;;;;;;;;16.11;100.00;99710.53;1724687;83;20150;-74
2022/08/11 01:47:51;;;;;;;;;;;;;;;16.09;100.00;99710.07;1724962;82;21859;-74
2022/08/11 01:50:47;;;;;;;;;;;;;;;16.07;100.00;99701.30;1724511;83;20141;-75
2022/08/11 01:53:40;;;;;;;;;;;;;;;16.09;100.00;99698.19;1724997;83;20168;-75
2022/08/11 01:56:25;;;;;;;;;;;;;;;16.07;100.00;99694.96;1724724;83;20464;-75
2022/08/11 01:59:17;;;;;;;;;;;;;;;16.06;100.00;99687.23;1723775;83;20152;-77
2022/08/11 02:02:44;;;;;;;;;;;;;;;16.05;100.00;99687.58;1724533;83;21851;-76
2022/08/11 02:05:04;;;;;;;;;;;;;;;16.02;100.00;99675.81;1720349;83;20097;-75
2022/08/11 02:07:40;;;;;;;;;;;;;;;16.02;100.00;99690.47;1723403;83;20441;-74
2022/08/11 02:13:48;;;;;;;;;;;;;;;15.99;100.00;99698.08;1690174;84;20119;-75
2022/08/11 02:16:38;;;;;;;;;;;;;;;15.96;100.00;99697.97;1700920;84;20478;-76
2022/08/11 02:25:06;;;;;;;;;;;;;;;15.94;100.00;99696.13;1724702;83;20108;-75
2022/08/11 02:27:51;;;;;;;;;;;;;;;15.94;100.00;99701.66;1724463;83;20124;-73
2022/08/11 02:30:21;;;;;;;;;;;;;;;15.93;100.00;99702.81;1719678;83;21561;-74
2022/08/11 02:36:07;;;;;;;;;;;;;;;15.91;100.00;99705.13;1724607;83;20140;-76
2022/08/11 02:38:57;;;;;;;;;;;;;;;15.90;100.00;99697.40;1724808;83;20515;-77
2022/08/11 02:44:42;;;;;;;;;;;;;;;15.89;100.00;99706.05;1724837;83;21209;-76
2022/08/11 02:47:14;;;;;;;;;;;;;;;15.88;100.00;99710.78;1724866;83;20112;-77
2022/08/11 02:50:11;;;;;;;;;;;;;;;15.88;100.00;99698.90;1698933;83;20175;-78
2022/08/11 02:52:38;;;;;;;;;;;;;;;15.89;100.00;99697.75;1693073;84;20457;-77
2022/08/11 02:55:25;;;;;;;;;;;;;;;15.91;100.00;99693.48;1693961;84;20103;-75
2022/08/11 02:58:18;;;;;;;;;;;;;;;15.94;100.00;99692.78;1721471;83;21268;-75
2022/08/11 03:00:52;;;;;;;;;;;;;;;15.94;100.00;99690.59;1690415;84;20117;-75
2022/08/11 03:03:32;;;;;;;;;;;;;;;15.93;100.00;99697.28;1722641;83;20149;-75
2022/08/11 03:06:09;;;;;;;;;;;;;;;15.92;100.00;99702.02;1718691;83;20436;-75
2022/08/11 03:08:55;;;;;;;;;;;;;;;15.91;100.00;99689.33;1723288;83;20109;-75
2022/08/11 03:17:41;;;;;;;;;;;;;;;15.92;100.00;99681.83;1718845;83;20125;-75
2022/08/11 03:20:20;;;;;;;;;;;;;;;15.92;100.00;99671.55;1715735;83;20203;-75
2022/08/11 03:22:51;;;;;;;;;;;;;;;15.93;100.00;99669.59;1723643;83;20439;-75
2022/08/11 03:25:30;;;;;;;;;;;;;;;16.00;100.00;99662.89;1723278;83;21065;-75
2022/08/11 03:28:11;;;;;;;;;;;;;;;16.02;100.00;99668.31;1708305;83;20441;-75
2022/08/11 03:30:47;;;;;;;;;;;;;;;16.00;100.00;99668.44;1698948;84;20093;-75
2022/08/11 03:36:45;;;;;;;;;;;;;;;16.07;100.00;99668.66;1702633;84;20137;-81
2022/08/11 03:39:30;;;;;;;;;;;;;;;16.08;100.00;99666.11;1702143;84;21068;-75
2022/08/11 03:42:16;;;;;;;;;;;;;;;16.09;100.00;99671.88;1702614;84;20089;-75
2022/08/11 03:45:11;;;;;;;;;;;;;;;16.05;100.00;99677.89;1702689;84;20161;-73
2022/08/11 03:48:05;;;;;;;;;;;;;;;16.06;100.00;99672.58;1706567;83;20086;-76
2022/08/11 03:51:02;;;;;;;;;;;;;;;16.14;100.00;99659.17;1732973;82;20111;-73
2022/08/11 03:53:57;;;;;;;;;;;;;;;16.19;100.00;99652.78;1737735;82;20630;-75
2022/08/11 03:56:58;;;;;;;;;;;;;;;16.20;100.00;99663.28;1733641;83;20134;-74
2022/08/11 03:59:55;;;;;;;;;;;;;;;16.15;100.00;99668.52;1733125;82;20083;-76
2022/08/11 04:02:56;;;;;;;;;;;;;;;16.10;100.00;99663.80;1738167;82;20115;-76
2022/08/11 04:05:36;;;;;;;;;;;;;;;16.07;100.00;99660.34;1713130;83;20438;-78
2022/08/11 04:08:28;;;;;;;;;;;;;;;16.05;100.00;99666.81;1733973;83;21127;-77
2022/08/11 04:11:10;;;;;;;;;;;;;;;16.02;100.00;99658.63;1733517;83;20118;-73
2022/08/11 04:15:58;;;;;;;;;;;;;;;16.04;100.00;99663.81;1733536;83;20074;-74
2022/08/11 04:16:46;;;;;;;;;;;;;;;16.09;100.00;99662.19;1718841;82;20079;-73
2022/08/11 04:19:23;;;;;;;;;;;;;;;16.09;100.00;99656.65;1733895;83;20438;-75
2022/08/11 04:22:16;;;;;;;;;;;;;;;16.15;100.00;99657.44;1733543;83;21120;-75
2022/08/11 04:25:15;;;;;;;;;;;;;;;16.23;100.00;99654.85;1733525;83;20118;-75
2022/08/11 04:27:57;;;;;;;;;;;;;;;16.29;100.00;99658.41;1748090;82;20078;-74
2022/08/11 04:30:49;;;;;;;;;;;;;;;16.35;100.00;99655.63;1727571;82;20118;-73
2022/08/11 04:33:49;;;;;;;;;;;;;;;16.41;100.00;99654.22;1754727;82;20127;-74
2022/08/11 04:40:09;;;;;;;;;;;;;;;16.40;100.00;99635.98;1728178;82;20138;-72
2022/08/11 04:43:22;;;;;;;;;;;;;;;16.47;100.00;99640.92;1729588;82;20426;-72
2022/08/11 04:46:20;;;;;;;;;;;;;;;16.53;100.00;99640.09;1749601;82;20178;-73
2022/08/11 05:07:18;;;;;;;;;;;;;;;16.71;100.00;99644.20;1724886;83;21080;-76
2022/08/11 05:10:12;;;;;;;;;;;;;;;16.85;100.00;99640.40;1724654;83;20503;-77
2022/08/11 05:12:49;;;;;;;;;;;;;;;16.96;100.00;99637.33;1699058;83;20137;-77
2022/08/11 05:35:55;;;;;;;;;;;;;;;16.88;100.00;99663.84;1698635;84;21199;-75
2022/08/11 05:58:05;;;;;;;;;;;;;;;17.20;100.00;99676.59;1702929;83;20424;-73
2022/08/11 06:00:34;;;;;;;;;;;;;;;17.30;100.00;99682.20;1700511;83;20097;-74
2022/08/11 06:03:06;;;;;;;;;;;;;;;17.39;100.00;99691.92;1694905;84;21179;-75
2022/08/11 06:05:42;;;;;;;;;;;;;;;17.50;100.00;99700.53;1698926;83;20510;-73
2022/08/11 06:08:08;;;;;;;;;;;;;;;17.52;100.00;99721.79;1698982;84;20085;-74
2022/08/11 06:10:43;;;;;;;;;;;;;;;17.55;100.00;99725.23;1678769;84;20129;-75
2022/08/11 06:13:16;;;;;;;;;;;;;;;17.58;100.00;99730.08;1699045;84;20174;-76
2022/08/11 06:15:46;;;;;;;;;;;;;;;17.52;100.00;99732.09;1698143;84;22208;-77
2022/08/11 06:18:17;;;;;;;;;;;;;;;17.44;100.00;99729.13;1698464;84;20121;-76
2022/08/11 06:20:56;;;;;;;;;;;;;;;17.39;100.00;99741.87;1698513;84;20136;-73
2022/08/11 06:23:22;;;;;;;;;;;;;;;17.35;100.00;99745.72;1698240;84;20093;-74
2022/08/11 06:26:00;;;;;;;;;;;;;;;17.31;100.00;99738.72;1698782;84;20479;-76
2022/08/11 06:28:34;;;;;;;;;;;;;;;17.29;100.00;99727.75;1698381;83;21135;-79
2022/08/11 06:31:06;;;;;;;;;;;;;;;17.33;100.00;99724.49;1698002;84;20141;-79
2022/08/11 06:33:42;;;;;;;;;;;;;;;17.33;100.00;99715.55;1695698;84;20085;-79
2022/08/11 06:36:18;;;;;;;;;;;;;;;17.31;100.00;99699.06;1698628;84;20164;-76
2022/08/11 06:39:19;;;;;;;;;;;;;;;17.28;100.00;99681.75;1698765;84;20485;-77
2022/08/11 06:41:58;;;;;;;;;;;;;;;17.25;100.00;99671.36;1679440;84;20121;-81
2022/08/11 06:44:32;;;;;;;;;;;;;;;17.20;100.00;99670.24;1710907;83;20158;-85
2022/08/11 06:47:07;;;;;;;;;;;;;;;17.16;100.00;99669.56;1700120;83;20404;-78
2022/08/11 06:52:21;;;;;;;;;;;;;;;17.13;100.00;99627.28;1642376;84;20113;-81
2022/08/11 06:54:56;;;;;;;;;;;;;;;17.13;100.00;99628.67;1696403;84;21185;-79
2022/08/11 07:00:27;;;;;;;;;;;;;;;17.12;100.00;99643.70;1699334;84;20097;-72
2022/08/11 07:03:12;;;;;;;;;;;;;;;17.13;100.00;99651.44;1682154;84;20101;-79
2022/08/11 07:05:47;;;;;;;;;;;;;;;17.18;100.00;99655.34;1698304;83;20136;-75
2022/08/11 07:17:04;;;;;;;;;;;;;;;17.35;100.00;99645.83;1689338;85;20090;-72
2022/08/11 07:30:51;;;;;;;;;;;;;;;17.72;100.00;99661.64;1690296;84;20102;-71
2022/08/11 07:33:22;;;;;;;;;;;;;;;17.75;100.00;99667.86;1723551;82;20083;-74
2022/08/11 07:36:02;;;;;;;;;;;;;;;17.74;100.00;99670.41;1741361;82;20114;-73
2022/08/11 07:38:43;;;;;;;;;;;;;;;17.70;100.00;99680.63;1742918;82;20096;-71
2022/08/11 07:41:16;;;;;;;;;;;;;;;17.66;100.00;99683.31;1742799;82;20123;-71
2022/08/11 07:44:07;;;;;;;;;;;;;;;17.65;100.00;99692.81;1741639;82;20199;-71
2022/08/11 07:54:37;;;;;;;;;;;;;;;17.54;100.00;99725.59;1742766;82;20095;-71
2022/08/11 08:19:36;;;;;;;;;;;;;;;17.23;100.00;99744.43;1742656;82;20130;-71
2022/08/11 08:22:06;;;;;;;;;;;;;;;17.23;100.00;99741.66;1719305;82;20087;-72
2022/08/11 08:24:40;;;;;;;;;;;;;;;17.21;100.00;99732.88;1743402;82;20423;-71
2022/08/11 08:27:12;;;;;;;;;;;;;;;17.13;100.00;99721.59;1742751;82;20386;-71
2022/08/11 08:32:41;;;;;;;;;;;;;;;17.10;100.00;99738.95;1742704;82;20134;-72
2022/08/11 08:35:13;;;;;;;;;;;;;;;17.16;100.00;99729.78;1738242;82;20095;-72
2022/08/11 08:37:39;;;;;;;;;;;;;;;17.23;100.00;99723.05;1742999;82;20447;-72
2022/08/11 08:40:11;;;;;;;;;;;;;;;17.30;100.00;99717.69;1742802;82;20143;-72
2022/08/11 08:42:50;;;;;;;;;;;;;;;17.37;100.00;99709.52;1742689;82;21214;-72
2022/08/11 08:45:26;;;;;;;;;;;;;;;17.42;100.00;99704.28;1742878;82;20091;-72
2022/08/11 08:47:59;;;;;;;;;;;;;;;17.46;100.00;99708.76;1742015;82;20083;-71
2022/08/11 08:51:33;;;;;;;;;;;;;;;17.53;100.00;99699.81;1742919;82;20182;-71
2022/08/11 08:53:02;;;;;;;;;;;;;;;17.55;100.00;99703.61;1741975;82;20083;-71
2022/08/11 08:55:33;;;;;;;;;;;;;;;17.58;100.00;99701.52;1734208;82;21152;-73
2022/08/11 08:57:59;;;;;;;;;;;;;;;17.63;100.00;99697.08;1730682;82;20176;-73
2022/08/11 09:00:39;;;;;;;;;;;;;;;17.66;100.00;99699.97;1710628;83;20121;-74
2022/08/11 09:03:08;;;;;;;;;;;;;;;17.67;100.00;99693.84;1713150;84;20086;-73
2022/08/11 09:05:36;;;;;;;;;;;;;;;17.65;100.00;99687.26;1706802;83;20093;-73
2022/08/11 09:08:05;;;;;;;;;;;;;;;17.67;100.00;99684.12;1712813;83;21284;-73
2022/08/11 09:10:33;;;;;;;;;;;;;;;17.68;100.00;99685.73;1712456;83;20115;-73
2022/08/11 09:13:07;;;;;;;;;;;;;;;17.69;100.00;99680.41;1712904;83;20073;-73
2022/08/11 09:15:36;;;;;;;;;;;;;;;17.72;100.00;99681.08;1689857;84;20441;-74
2022/08/11 09:18:10;;;;;;;;;;;;;;;17.77;100.00;99687.73;1690155;84;20079;-72
2022/08/11 09:20:39;;;;;;;;;;;;;;;17.84;100.00;99687.11;1713230;84;21149;-73
2022/08/11 09:28:47;;;;;;;;;;;;;;;18.02;100.00;99688.30;1713329;84;20252;-72
2022/08/11 09:31:15;;;;;;;;;;;;;;;18.13;100.00;99694.32;1689929;84;20129;-72
2022/08/11 09:33:44;;;;;;;;;;;;;;;18.23;100.00;99706.84;1690152;84;20101;-73
2022/08/11 09:41:46;;;;;;;;;;;;;;;18.55;100.00;99703.34;1689963;84;20121;-72
2022/08/11 09:47:04;;;;;;;;;;;;;;;18.75;100.00;99708.36;1712980;83;21175;-72
2022/08/11 09:49:36;;;;;;;;;;;;;;;18.75;100.00;99711.94;1706894;83;20098;-73
2022/08/11 09:52:08;;;;;;;;;;;;;;;18.80;100.00;99708.06;1707110;83;20133;-73
2022/08/11 09:54:35;;;;;;;;;;;;;;;18.84;100.00;99715.09;1723803;82;20121;-73
2022/08/11 10:00:00;;;;;;;;;;;;;;;18.95;100.00;99715.52;1689345;84;20445;-72
2022/08/11 10:02:28;;;;;;;;;;;;;;;19.04;100.00;99725.83;1712485;83;20086;-73
2022/08/11 10:07:00;;;;;;;;;;;;;;;19.13;100.00;99720.01;1690218;84;20130;-71
2022/08/11 10:07:28;;;;;;;;;;;;;;;19.19;100.00;99718.53;1713618;83;20090;-72
2022/08/11 10:10:07;;;;;;;;;;;;;;;19.27;100.00;99712.52;1690163;84;20443;-73
2022/08/11 10:12:38;;;;;;;;;;;;;;;19.37;100.00;99716.08;1712536;83;21359;-72
2022/08/11 10:20:49;;;;;;;;;;;;;;;19.49;100.00;99714.51;1713236;84;20110;-72
2022/08/11 10:28:56;;;;;;;;;;;;;;;19.48;100.00;99710.70;1709606;83;20417;-72
2022/08/11 10:34:15;;;;;;;;;;;;;;;19.51;100.00;99709.41;1704334;84;21310;-72
2022/08/11 10:36:51;;;;;;;;;;;;;;;19.51;100.00;99701.05;1685106;84;20085;-73
2022/08/11 10:39:18;;;;;;;;;;;;;;;19.54;100.00;99703.68;1703680;84;21181;-77
2022/08/11 10:44:38;;;;;;;;;;;;;;;19.58;100.00;99698.98;1704527;84;20117;-72
2022/08/11 11:01:13;;;;;;;;;;;;;;;20.16;100.00;99670.20;1738177;82;20446;-74
2022/08/11 11:03:51;;;;;;;;;;;;;;;20.26;100.00;99679.28;1713098;83;20083;-73
2022/08/11 11:06:29;;;;;;;;;;;;;;;20.35;100.00;99676.20;1733263;83;21114;-72
2022/08/11 11:08:59;;;;;;;;;;;;;;;20.54;100.00;99672.50;1731270;82;20107;-73
2022/08/11 11:19:42;;;;;;;;;;;;;;;20.47;100.00;99664.85;1736533;82;21269;-74
2022/08/11 11:22:52;;;;;;;;;;;;;;;20.46;100.00;99663.24;1736709;82;20094;-76
2022/08/11 11:25:01;;;;;;;;;;;;;;;20.54;100.00;99659.95;1725052;82;20094;-77
2022/08/11 11:27:46;;;;;;;;;;;;;;;20.70;100.00;99664.73;1736403;82;20283;-78
2022/08/11 11:30:18;;;;;;;;;;;;;;;20.98;100.00;99665.62;1708181;82;20166;-76
2022/08/11 11:33:01;;;;;;;;;;;;;;;21.21;100.00;99663.50;1709228;82;21567;-78
2022/08/11 11:35:49;;;;;;;;;;;;;;;21.36;100.00;99665.23;1708476;82;20143;-77
2022/08/11 11:38:20;;;;;;;;;;;;;;;21.49;100.00;99666.31;1709430;82;20431;-77
2022/08/11 11:41:23;;;;;;;;;;;;;;;21.65;100.00;99673.83;1736502;82;20111;-77
2022/08/11 11:43:27;;;;;;;;;;;;;;;21.86;100.00;99669.00;1736129;82;20074;-77
2022/08/11 11:45:57;;;;;;;;;;;;;;;22.10;100.00;99658.59;1735922;82;21466;-76
2022/08/11 11:48:27;;;;;;;;;;;;;;;22.23;100.00;99648.67;1718817;82;20440;-77
2022/08/11 11:50:53;;;;;;;;;;;;;;;22.32;100.00;99658.91;1731270;83;20099;-77
2022/08/11 11:53:23;;;;;;;;;;;;;;;22.31;100.00;99658.70;1714661;83;20107;-78
2022/08/11 11:55:54;;;;;;;;;;;;;;;22.26;99.71;99663.27;1733305;83;20441;-75
2022/08/11 12:01:15;;;;;;;;;;;;;;;22.24;99.01;99666.25;1733499;83;20095;-76
2022/08/11 12:03:48;;;;;;;;;;;;;;;22.32;98.89;99663.70;1733199;83;20115;-78
2022/08/11 12:06:18;;;;;;;;;;;;;;;22.33;98.57;99667.51;1732516;82;20476;-77
2022/08/11 12:08:47;;;;;;;;;;;;;;;22.26;98.74;99670.27;1732487;82;20091;-76
2022/08/11 12:14:18;;;;;;;;;;;;;;;22.27;99.09;99671.06;1732507;82;20082;-76
2022/08/11 12:16:35;;;;;;;;;;;;;;;22.30;98.83;99668.29;1732219;82;20123;-76
2022/08/11 12:19:17;;;;;;;;;;;;;;;22.32;98.51;99672.09;1733041;82;20091;-76
2022/08/11 12:27:25;;;;;;;;;;;;;;;22.06;97.45;99678.13;1717790;83;20087;-76
2022/08/11 12:29:59;;;;;;;;;;;;;;;22.08;99.55;99675.75;1732857;82;20146;-76
2022/08/11 12:32:30;;;;;;;;;;;;;;;22.19;100.00;99673.62;1733548;83;20461;-75
2022/08/11 12:34:58;;;;;;;;;;;;;;;22.29;99.01;99679.27;1713717;83;20082;-75
2022/08/11 12:37:35;;;;;;;;;;;;;;;22.32;98.58;99686.08;1730087;83;21210;-75
2022/08/11 12:45:41;;;;;;;;;;;;;;;22.53;97.36;99684.75;1703853;84;20259;-77
2022/08/11 12:54:15;;;;;;;;;;;;;;;22.54;95.18;99677.17;1723021;82;20094;-81
2022/08/11 13:05:03;;;;;;;;;;;;;;;22.52;97.19;99645.42;1709382;83;21522;-75
2022/08/11 13:07:32;;;;;;;;;;;;;;;22.60;95.78;99640.63;1733161;83;20402;-77
2022/08/11 13:10:03;;;;;;;;;;;;;;;22.65;96.36;99650.84;1731736;82;20425;-77
2022/08/11 13:12:48;;;;;;;;;;;;;;;22.70;95.90;99651.05;1721939;83;20128;-75
2022/08/11 13:15:21;;;;;;;;;;;;;;;22.72;95.16;99652.27;1704095;84;20096;-79
2022/08/11 13:17:55;;;;;;;;;;;;;;;22.73;95.05;99637.67;1704018;83;22184;-76
2022/08/11 13:20:24;;;;;;;;;;;;;;;22.70;96.23;99648.25;1685391;84;20435;-76
2022/08/11 13:22:54;;;;;;;;;;;;;;;22.64;96.17;99640.04;1707874;84;20440;-77
2022/08/11 13:25:25;;;;;;;;;;;;;;;22.62;96.27;99639.62;1703244;84;20121;-78
2022/08/11 13:28:04;;;;;;;;;;;;;;;22.53;96.68;99650.42;1708957;84;20472;-76
2022/08/11 13:33:20;;;;;;;;;;;;;;;22.42;97.90;99655.16;1704100;84;20113;-78
2022/08/11 13:36:01;;;;;;;;;;;;;;;22.36;99.10;99650.54;1700790;83;20113;-77
2022/08/11 13:38:20;;;;;;;;;;;;;;;22.28;99.59;99655.89;1701789;83;20435;-77
2022/08/11 13:40:57;;;;;;;;;;;;;;;22.22;100.00;99647.08;1703339;84;20113;-74
2022/08/11 13:43:29;;;;;;;;;;;;;;;22.12;100.00;99655.41;1704055;83;21992;-75
2022/08/11 13:46:17;;;;;;;;;;;;;;;22.05;100.00;99653.36;1715742;83;20129;-75
2022/08/11 13:48:27;;;;;;;;;;;;;;;22.04;100.00;99655.36;1685004;83;20139;-75
2022/08/11 13:53:42;;;;;;;;;;;;;;;21.97;100.00;99652.48;1674008;85;20118;-76
2022/08/11 13:56:09;;;;;;;;;;;;;;;21.92;100.00;99658.47;1716359;83;21552;-76
2022/08/11 13:58:36;;;;;;;;;;;;;;;21.86;100.00;99662.82;1671165;85;20086;-76
2022/08/11 14:01:08;;;;;;;;;;;;;;;21.80;100.00;99662.98;1661048;85;20409;-74
2022/08/11 14:03:40;;;;;;;;;;;;;;;21.76;100.00;99657.95;1687137;84;20132;-74
2022/08/11 14:06:08;;;;;;;;;;;;;;;21.73;100.00;99669.91;1679499;83;20442;-77
2022/08/11 14:08:37;;;;;;;;;;;;;;;21.68;100.00;99660.48;1699203;83;21926;-73
2022/08/11 14:13:39;;;;;;;;;;;;;;;21.57;100.00;99653.42;1653987;84;20145;-80
2022/08/11 14:16:19;;;;;;;;;;;;;;;21.54;100.00;99650.59;1678956;84;20144;-82
2022/08/11 14:18:50;;;;;;;;;;;;;;;21.51;100.00;99651.37;1697404;84;20421;-83
2022/08/11 14:24:10;;;;;;;;;;;;;;;21.43;100.00;99661.67;1698844;84;20136;-83
2022/08/11 14:26:42;;;;;;;;;;;;;;;21.36;100.00;99661.64;1698628;84;20109;-79
2022/08/11 14:29:15;;;;;;;;;;;;;;;21.34;100.00;99657.84;1699237;83;20097;-79
2022/08/11 14:31:56;;;;;;;;;;;;;;;21.34;100.00;99662.62;1688571;83;20101;-77
2022/08/11 14:34:25;;;;;;;;;;;;;;;21.31;100.00;99662.80;1724785;83;20073;-81
2022/08/11 14:36:54;;;;;;;;;;;;;;;21.30;100.00;99663.19;1724209;82;20140;-78
2022/08/11 14:39:28;;;;;;;;;;;;;;;21.29;100.00;99660.98;1724663;82;20077;-81
2022/08/11 14:47:34;;;;;;;;;;;;;;;21.25;100.00;99660.73;1724699;82;21063;-79
2022/08/11 14:50:04;;;;;;;;;;;;;;;21.24;100.00;99654.35;1724918;83;20085;-76
2022/08/11 14:52:37;;;;;;;;;;;;;;;21.24;100.00;99653.55;1724837;83;20473;-81
2022/08/11 14:57:56;;;;;;;;;;;;;;;21.24;100.00;99654.35;1724443;83;20193;-80
2022/08/11 15:00:27;;;;;;;;;;;;;;;21.21;100.00;99650.10;1721054;83;22137;-83
2022/08/11 15:03:09;;;;;;;;;;;;;;;21.23;100.00;99658.92;1724137;83;20432;-80
2022/08/11 15:05:40;;;;;;;;;;;;;;;21.25;100.00;99657.95;1724612;82;20117;-82
2022/08/11 15:08:12;;;;;;;;;;;;;;;21.27;100.00;99656.97;1724665;82;20468;-85
2022/08/11 15:10:42;;;;;;;;;;;;;;;21.30;100.00;99652.02;1723314;83;20101;-78
2022/08/11 15:13:18;;;;;;;;;;;;;;;21.32;100.00;99653.23;1704368;84;21097;-79
2022/08/11 15:18:31;;;;;;;;;;;;;;;21.43;100.00;99660.28;1704321;83;20089;-80
2022/08/11 15:37:42;;;;;;;;;;;;;;;22.13;100.00;99649.42;1704460;83;20102;-80
2022/08/11 15:46:15;;;;;;;;;;;;;;;22.15;100.00;99653.22;1703560;84;20149;-79
2022/08/11 15:48:48;;;;;;;;;;;;;;;22.17;100.00;99652.23;1704093;84;20117;-78
2022/08/11 15:51:27;;;;;;;;;;;;;;;22.15;100.00;99654.62;1703406;84;20153;-80
2022/08/11 15:54:03;;;;;;;;;;;;;;;22.14;100.00;99656.61;1703583;84;21161;-80
2022/08/11 15:56:31;;;;;;;;;;;;;;;22.13;100.00;99646.62;1702120;84;20097;-81
2022/08/11 16:04:34;;;;;;;;;;;;;;;22.11;100.00;99649.01;1703947;83;20161;-79
2022/08/11 16:07:05;;;;;;;;;;;;;;;22.10;100.00;99651.59;1687851;84;21114;-82
2022/08/11 16:09:37;;;;;;;;;;;;;;;22.10;100.00;99646.01;1703720;83;20547;-83
2022/08/11 16:12:07;;;;;;;;;;;;;;;22.09;100.00;99643.00;1711665;83;20153;-81
2022/08/11 16:17:34;;;;;;;;;;;;;;;22.10;100.00;99647.41;1687032;84;20124;-81
2022/08/11 16:20:04;;;;;;;;;;;;;;;22.06;100.00;99650.77;1687856;83;21592;-80
2022/08/11 16:22:42;;;;;;;;;;;;;;;22.00;100.00;99653.70;1712029;83;20129;-85
2022/08/11 16:25:13;;;;;;;;;;;;;;;21.95;100.00;99651.30;1703020;83;20144;-80
2022/08/11 16:27:44;;;;;;;;;;;;;;;21.89;100.00;99653.66;1703822;83;20153;-82
2022/08/11 16:30:13;;;;;;;;;;;;;;;21.80;100.00;99649.60;1707993;83;20105;-81
2022/08/11 16:32:42;;;;;;;;;;;;;;;21.72;100.00;99654.33;1724765;83;22140;-82
2022/08/11 16:40:54;;;;;;;;;;;;;;;21.48;100.00;99649.34;1724543;83;20180;-81
2022/08/11 16:49:01;;;;;;;;;;;;;;;21.31;100.00;99652.22;1725176;82;20172;-80
2022/08/11 16:51:30;;;;;;;;;;;;;;;21.27;100.00;99649.99;1724011;83;20124;-80
2022/08/11 16:53:58;;;;;;;;;;;;;;;21.23;100.00;99647.16;1699668;83;20416;-79
2022/08/11 16:56:49;;;;;;;;;;;;;;;21.19;100.00;99642.11;1699676;83;20428;-83
2022/08/11 16:59:27;;;;;;;;;;;;;;;21.15;100.00;99644.66;1724795;83;21221;-82
2022/08/11 17:02:06;;;;;;;;;;;;;;;21.11;100.00;99643.23;1724270;83;20073;-78
2022/08/11 17:13:10;;;;;;;;;;;;;;;20.92;100.00;99643.43;1724181;83;21152;-77
2022/08/11 17:18:39;;;;;;;;;;;;;;;20.82;100.00;99642.13;1724346;83;20152;-79
2022/08/11 17:21:25;;;;;;;;;;;;;;;20.78;100.00;99640.52;1724436;83;20180;-84
2022/08/11 17:23:53;;;;;;;;;;;;;;;20.73;100.00;99645.84;1724337;83;20124;-81
2022/08/11 17:26:55;;;;;;;;;;;;;;;20.68;100.00;99646.18;1724617;83;21121;-81
2022/08/11 17:29:31;;;;;;;;;;;;;;;20.65;100.00;99646.95;1724022;83;20120;-79
2022/08/11 17:37:29;;;;;;;;;;;;;;;20.59;100.00;99642.89;1703148;83;20141;-82
2022/08/11 17:39:56;;;;;;;;;;;;;;;20.56;100.00;99640.27;1724046;83;21109;-82
2022/08/11 17:50:37;;;;;;;;;;;;;;;20.43;100.00;99645.88;1754030;82;20422;-79
2022/08/11 18:01:18;;;;;;;;;;;;;;;20.31;100.00;99654.45;1754147;82;20462;-82
2022/08/11 18:03:44;;;;;;;;;;;;;;;20.27;100.00;99654.41;1754284;82;20170;-81
2022/08/11 18:06:11;;;;;;;;;;;;;;;20.25;100.00;99653.98;1754124;82;21751;-82
